sensor_id;sensor_type;location;lat;lon;timestamp;P1;durP1;ratioP1;P2;durP2;ratioP2
75512;SDS011;64090;49.770;18.760;2024-03-02T00:01:29;38.70;;;25.10;;
75512;SDS011;64090;49.770;18.760;2024-03-02T00:04:31;35.00;;;22.20;;
75512;SDS011;64090;49.770;18.760;2024-03-02T00:07:34;32.70;;;20.10;;
75512;SDS011;64090;49.770;18.760;2024-03-02T00:10:37;24.50;;;16.70;;
75512;SDS011;64090;49.770;18.760;2024-03-02T00:13:45;15.60;;;10.30;;
75512;SDS011;64090;49.770;18.760;2024-03-02T00:16:48;21.40;;;12.20;;
75512;SDS011;64090;49.770;18.760;2024-03-02T00:19:51;16.40;;;9.60;;
75512;SDS011;64090;49.770;18.760;2024-03-02T00:23:14;17.80;;;10.80;;
75512;SDS011;64090;49.770;18.760;2024-03-02T00:26:18;21.50;;;12.60;;
75512;SDS011;64090;49.770;18.760;2024-03-02T00:29:21;21.90;;;12.20;;
75512;SDS011;64090;49.770;18.760;2024-03-02T00:32:24;20.10;;;11.10;;
75512;SDS011;64090;49.770;18.760;2024-03-02T00:35:28;20.80;;;11.80;;
75512;SDS011;64090;49.770;18.760;2024-03-02T00:38:31;26.40;;;17.30;;
75512;SDS011;64090;49.770;18.760;2024-03-02T00:41:34;41.70;;;23.70;;
75512;SDS011;64090;49.770;18.760;2024-03-02T00:44:38;70.70;;;39.00;;
75512;SDS011;64090;49.770;18.760;2024-03-02T00:47:41;74.80;;;44.10;;
75512;SDS011;64090;49.770;18.760;2024-03-02T00:50:44;57.50;;;32.10;;
75512;SDS011;64090;49.770;18.760;2024-03-02T00:53:47;62.50;;;37.90;;
75512;SDS011;64090;49.770;18.760;2024-03-02T00:56:50;41.90;;;23.90;;
75512;SDS011;64090;49.770;18.760;2024-03-02T00:59:54;37.30;;;23.20;;
75512;SDS011;64090;49.770;18.760;2024-03-02T01:02:58;32.20;;;19.10;;
75512;SDS011;64090;49.770;18.760;2024-03-02T01:06:01;24.20;;;14.80;;
75512;SDS011;64090;49.770;18.760;2024-03-02T01:09:04;19.20;;;11.10;;
75512;SDS011;64090;49.770;18.760;2024-03-02T01:12:07;19.70;;;13.20;;
75512;SDS011;64090;49.770;18.760;2024-03-02T01:15:10;17.10;;;11.20;;
75512;SDS011;64090;49.770;18.760;2024-03-02T01:18:13;20.50;;;13.60;;
75512;SDS011;64090;49.770;18.760;2024-03-02T01:21:16;21.00;;;13.50;;
75512;SDS011;64090;49.770;18.760;2024-03-02T01:24:19;19.60;;;12.80;;
75512;SDS011;64090;49.770;18.760;2024-03-02T01:27:22;17.70;;;11.40;;
75512;SDS011;64090;49.770;18.760;2024-03-02T01:30:25;16.40;;;9.40;;
75512;SDS011;64090;49.770;18.760;2024-03-02T01:33:28;13.90;;;9.90;;
75512;SDS011;64090;49.770;18.760;2024-03-02T01:36:31;15.90;;;9.30;;
75512;SDS011;64090;49.770;18.760;2024-03-02T01:39:33;14.40;;;8.90;;
75512;SDS011;64090;49.770;18.760;2024-03-02T01:42:38;13.00;;;9.10;;
75512;SDS011;64090;49.770;18.760;2024-03-02T01:45:41;14.70;;;9.20;;
75512;SDS011;64090;49.770;18.760;2024-03-02T01:48:47;13.00;;;8.50;;
75512;SDS011;64090;49.770;18.760;2024-03-02T01:51:57;13.30;;;8.10;;
75512;SDS011;64090;49.770;18.760;2024-03-02T01:55:04;12.00;;;8.10;;
75512;SDS011;64090;49.770;18.760;2024-03-02T01:58:14;12.60;;;8.70;;
75512;SDS011;64090;49.770;18.760;2024-03-02T02:01:26;12.30;;;8.20;;
75512;SDS011;64090;49.770;18.760;2024-03-02T02:04:29;12.50;;;7.70;;
75512;SDS011;64090;49.770;18.760;2024-03-02T02:07:33;17.50;;;11.10;;
75512;SDS011;64090;49.770;18.760;2024-03-02T02:10:37;14.40;;;10.30;;
75512;SDS011;64090;49.770;18.760;2024-03-02T02:13:40;13.90;;;8.00;;
75512;SDS011;64090;49.770;18.760;2024-03-02T02:16:42;12.90;;;9.20;;
75512;SDS011;64090;49.770;18.760;2024-03-02T02:19:45;11.50;;;8.50;;
75512;SDS011;64090;49.770;18.760;2024-03-02T02:26:04;12.20;;;8.10;;
75512;SDS011;64090;49.770;18.760;2024-03-02T02:29:07;12.30;;;9.90;;
75512;SDS011;64090;49.770;18.760;2024-03-02T02:32:10;12.20;;;7.60;;
75512;SDS011;64090;49.770;18.760;2024-03-02T02:35:12;15.30;;;10.00;;
75512;SDS011;64090;49.770;18.760;2024-03-02T02:38:16;11.40;;;7.30;;
75512;SDS011;64090;49.770;18.760;2024-03-02T02:41:19;10.10;;;6.80;;
75512;SDS011;64090;49.770;18.760;2024-03-02T02:44:21;11.50;;;8.30;;
75512;SDS011;64090;49.770;18.760;2024-03-02T02:47:25;11.80;;;7.20;;
75512;SDS011;64090;49.770;18.760;2024-03-02T02:50:28;9.70;;;6.90;;
75512;SDS011;64090;49.770;18.760;2024-03-02T02:53:31;10.50;;;6.20;;
75512;SDS011;64090;49.770;18.760;2024-03-02T02:56:33;10.40;;;8.20;;
75512;SDS011;64090;49.770;18.760;2024-03-02T02:59:36;11.30;;;7.00;;
75512;SDS011;64090;49.770;18.760;2024-03-02T03:02:42;10.30;;;6.70;;
75512;SDS011;64090;49.770;18.760;2024-03-02T03:05:46;11.30;;;7.40;;
75512;SDS011;64090;49.770;18.760;2024-03-02T03:08:49;11.50;;;8.70;;
75512;SDS011;64090;49.770;18.760;2024-03-02T03:11:52;9.40;;;6.60;;
75512;SDS011;64090;49.770;18.760;2024-03-02T03:14:55;11.30;;;7.70;;
75512;SDS011;64090;49.770;18.760;2024-03-02T03:17:58;11.00;;;7.30;;
75512;SDS011;64090;49.770;18.760;2024-03-02T03:21:01;9.20;;;7.20;;
75512;SDS011;64090;49.770;18.760;2024-03-02T03:24:05;10.70;;;7.10;;
75512;SDS011;64090;49.770;18.760;2024-03-02T03:27:07;12.70;;;8.70;;
75512;SDS011;64090;49.770;18.760;2024-03-02T03:30:10;13.20;;;9.70;;
75512;SDS011;64090;49.770;18.760;2024-03-02T03:33:14;13.60;;;9.90;;
75512;SDS011;64090;49.770;18.760;2024-03-02T03:36:17;12.50;;;7.90;;
75512;SDS011;64090;49.770;18.760;2024-03-02T03:39:19;12.40;;;7.50;;
75512;SDS011;64090;49.770;18.760;2024-03-02T03:42:22;9.90;;;6.30;;
75512;SDS011;64090;49.770;18.760;2024-03-02T03:45:25;12.50;;;8.20;;
75512;SDS011;64090;49.770;18.760;2024-03-02T03:48:29;11.30;;;7.70;;
75512;SDS011;64090;49.770;18.760;2024-03-02T03:51:33;8.50;;;6.50;;
75512;SDS011;64090;49.770;18.760;2024-03-02T03:54:36;9.90;;;7.60;;
75512;SDS011;64090;49.770;18.760;2024-03-02T03:57:41;9.70;;;6.50;;
75512;SDS011;64090;49.770;18.760;2024-03-02T04:00:44;11.70;;;7.20;;
75512;SDS011;64090;49.770;18.760;2024-03-02T04:03:47;10.30;;;6.80;;
75512;SDS011;64090;49.770;18.760;2024-03-02T04:06:50;10.30;;;5.60;;
75512;SDS011;64090;49.770;18.760;2024-03-02T04:09:53;11.90;;;6.50;;
75512;SDS011;64090;49.770;18.760;2024-03-02T04:12:56;14.00;;;8.10;;
75512;SDS011;64090;49.770;18.760;2024-03-02T04:15:59;15.80;;;11.30;;
75512;SDS011;64090;49.770;18.760;2024-03-02T04:19:02;15.70;;;12.30;;
75512;SDS011;64090;49.770;18.760;2024-03-02T04:22:06;13.30;;;8.60;;
75512;SDS011;64090;49.770;18.760;2024-03-02T04:25:22;12.10;;;7.50;;
75512;SDS011;64090;49.770;18.760;2024-03-02T04:28:25;19.30;;;13.40;;
75512;SDS011;64090;49.770;18.760;2024-03-02T04:31:28;15.40;;;10.90;;
75512;SDS011;64090;49.770;18.760;2024-03-02T04:34:31;15.00;;;10.50;;
75512;SDS011;64090;49.770;18.760;2024-03-02T04:37:34;14.80;;;10.30;;
75512;SDS011;64090;49.770;18.760;2024-03-02T04:40:37;14.40;;;9.60;;
75512;SDS011;64090;49.770;18.760;2024-03-02T04:43:40;10.60;;;7.80;;
75512;SDS011;64090;49.770;18.760;2024-03-02T04:46:43;13.50;;;9.80;;
75512;SDS011;64090;49.770;18.760;2024-03-02T04:49:46;16.90;;;14.10;;
75512;SDS011;64090;49.770;18.760;2024-03-02T04:52:49;18.50;;;16.50;;
75512;SDS011;64090;49.770;18.760;2024-03-02T04:55:52;11.50;;;9.20;;
75512;SDS011;64090;49.770;18.760;2024-03-02T04:59:12;10.40;;;8.00;;
75512;SDS011;64090;49.770;18.760;2024-03-02T05:02:15;13.10;;;8.00;;
75512;SDS011;64090;49.770;18.760;2024-03-02T05:05:18;10.70;;;8.10;;
75512;SDS011;64090;49.770;18.760;2024-03-02T05:08:21;10.70;;;7.80;;
75512;SDS011;64090;49.770;18.760;2024-03-02T05:11:24;11.20;;;9.20;;
75512;SDS011;64090;49.770;18.760;2024-03-02T05:14:42;9.70;;;6.90;;
75512;SDS011;64090;49.770;18.760;2024-03-02T05:17:45;11.00;;;7.30;;
75512;SDS011;64090;49.770;18.760;2024-03-02T05:20:48;10.70;;;6.90;;
75512;SDS011;64090;49.770;18.760;2024-03-02T05:23:51;9.60;;;6.10;;
75512;SDS011;64090;49.770;18.760;2024-03-02T05:26:54;9.50;;;6.40;;
75512;SDS011;64090;49.770;18.760;2024-03-02T05:29:57;11.50;;;6.50;;
75512;SDS011;64090;49.770;18.760;2024-03-02T05:33:01;12.20;;;10.30;;
75512;SDS011;64090;49.770;18.760;2024-03-02T05:36:04;14.50;;;12.50;;
75512;SDS011;64090;49.770;18.760;2024-03-02T05:39:07;15.80;;;13.40;;
75512;SDS011;64090;49.770;18.760;2024-03-02T05:42:13;13.20;;;10.90;;
75512;SDS011;64090;49.770;18.760;2024-03-02T05:45:16;11.70;;;8.70;;
75512;SDS011;64090;49.770;18.760;2024-03-02T05:48:19;12.00;;;9.00;;
75512;SDS011;64090;49.770;18.760;2024-03-02T05:51:22;11.10;;;6.20;;
75512;SDS011;64090;49.770;18.760;2024-03-02T05:54:25;9.90;;;6.40;;
75512;SDS011;64090;49.770;18.760;2024-03-02T05:57:28;11.00;;;7.10;;
75512;SDS011;64090;49.770;18.760;2024-03-02T06:00:43;11.80;;;6.10;;
75512;SDS011;64090;49.770;18.760;2024-03-02T06:03:46;8.90;;;6.30;;
75512;SDS011;64090;49.770;18.760;2024-03-02T06:06:49;9.10;;;7.40;;
75512;SDS011;64090;49.770;18.760;2024-03-02T06:09:52;11.50;;;7.30;;
75512;SDS011;64090;49.770;18.760;2024-03-02T06:12:55;8.70;;;6.10;;
75512;SDS011;64090;49.770;18.760;2024-03-02T06:15:58;11.10;;;7.60;;
75512;SDS011;64090;49.770;18.760;2024-03-02T06:19:01;9.70;;;6.70;;
75512;SDS011;64090;49.770;18.760;2024-03-02T06:22:04;5.10;;;3.60;;
75512;SDS011;64090;49.770;18.760;2024-03-02T06:25:08;10.10;;;6.40;;
75512;SDS011;64090;49.770;18.760;2024-03-02T06:28:11;10.90;;;8.90;;
75512;SDS011;64090;49.770;18.760;2024-03-02T06:31:14;11.10;;;9.30;;
75512;SDS011;64090;49.770;18.760;2024-03-02T06:34:17;8.70;;;6.30;;
75512;SDS011;64090;49.770;18.760;2024-03-02T06:37:19;10.70;;;8.20;;
75512;SDS011;64090;49.770;18.760;2024-03-02T06:40:22;11.50;;;9.90;;
75512;SDS011;64090;49.770;18.760;2024-03-02T06:43:25;11.40;;;8.40;;
75512;SDS011;64090;49.770;18.760;2024-03-02T06:46:28;10.30;;;6.90;;
75512;SDS011;64090;49.770;18.760;2024-03-02T06:49:31;9.50;;;7.00;;
75512;SDS011;64090;49.770;18.760;2024-03-02T06:52:34;11.70;;;8.50;;
75512;SDS011;64090;49.770;18.760;2024-03-02T06:55:38;13.90;;;8.80;;
75512;SDS011;64090;49.770;18.760;2024-03-02T06:58:41;12.40;;;8.40;;
75512;SDS011;64090;49.770;18.760;2024-03-02T07:01:45;8.60;;;5.90;;
75512;SDS011;64090;49.770;18.760;2024-03-02T07:04:48;14.80;;;7.80;;
75512;SDS011;64090;49.770;18.760;2024-03-02T07:07:51;11.50;;;7.20;;
75512;SDS011;64090;49.770;18.760;2024-03-02T07:10:54;12.40;;;7.40;;
75512;SDS011;64090;49.770;18.760;2024-03-02T07:13:57;12.20;;;7.70;;
75512;SDS011;64090;49.770;18.760;2024-03-02T07:17:00;12.00;;;9.50;;
75512;SDS011;64090;49.770;18.760;2024-03-02T07:20:03;14.90;;;9.10;;
75512;SDS011;64090;49.770;18.760;2024-03-02T07:23:06;13.60;;;9.10;;
75512;SDS011;64090;49.770;18.760;2024-03-02T07:26:09;12.40;;;8.90;;
75512;SDS011;64090;49.770;18.760;2024-03-02T07:32:18;11.90;;;8.30;;
75512;SDS011;64090;49.770;18.760;2024-03-02T07:35:21;12.90;;;8.70;;
75512;SDS011;64090;49.770;18.760;2024-03-02T07:38:24;9.30;;;7.10;;
75512;SDS011;64090;49.770;18.760;2024-03-02T07:41:28;11.50;;;7.40;;
75512;SDS011;64090;49.770;18.760;2024-03-02T07:44:30;10.00;;;7.00;;
75512;SDS011;64090;49.770;18.760;2024-03-02T07:47:34;12.60;;;8.00;;
75512;SDS011;64090;49.770;18.760;2024-03-02T07:50:37;14.30;;;9.00;;
75512;SDS011;64090;49.770;18.760;2024-03-02T07:53:41;12.50;;;8.20;;
75512;SDS011;64090;49.770;18.760;2024-03-02T07:56:44;12.60;;;7.90;;
75512;SDS011;64090;49.770;18.760;2024-03-02T07:59:47;17.40;;;9.40;;
75512;SDS011;64090;49.770;18.760;2024-03-02T08:02:51;17.60;;;9.40;;
75512;SDS011;64090;49.770;18.760;2024-03-02T08:05:55;15.50;;;9.60;;
75512;SDS011;64090;49.770;18.760;2024-03-02T08:08:59;15.50;;;8.50;;
75512;SDS011;64090;49.770;18.760;2024-03-02T08:12:03;14.80;;;9.20;;
75512;SDS011;64090;49.770;18.760;2024-03-02T08:15:06;15.00;;;9.30;;
75512;SDS011;64090;49.770;18.760;2024-03-02T08:18:10;18.70;;;12.40;;
75512;SDS011;64090;49.770;18.760;2024-03-02T08:21:13;16.90;;;11.70;;
75512;SDS011;64090;49.770;18.760;2024-03-02T08:24:16;15.90;;;9.20;;
75512;SDS011;64090;49.770;18.760;2024-03-02T08:27:19;13.70;;;9.30;;
75512;SDS011;64090;49.770;18.760;2024-03-02T08:30:22;13.90;;;9.10;;
75512;SDS011;64090;49.770;18.760;2024-03-02T08:33:25;11.10;;;6.50;;
75512;SDS011;64090;49.770;18.760;2024-03-02T08:36:27;13.40;;;9.00;;
75512;SDS011;64090;49.770;18.760;2024-03-02T08:39:30;11.50;;;8.40;;
75512;SDS011;64090;49.770;18.760;2024-03-02T08:42:34;12.00;;;8.00;;
75512;SDS011;64090;49.770;18.760;2024-03-02T08:45:37;14.40;;;10.20;;
75512;SDS011;64090;49.770;18.760;2024-03-02T08:48:42;14.00;;;10.10;;
75512;SDS011;64090;49.770;18.760;2024-03-02T08:51:45;13.40;;;8.40;;
75512;SDS011;64090;49.770;18.760;2024-03-02T08:54:47;13.20;;;8.50;;
75512;SDS011;64090;49.770;18.760;2024-03-02T08:57:50;12.50;;;8.80;;
75512;SDS011;64090;49.770;18.760;2024-03-02T09:00:54;13.60;;;8.00;;
75512;SDS011;64090;49.770;18.760;2024-03-02T09:03:57;10.80;;;8.20;;
75512;SDS011;64090;49.770;18.760;2024-03-02T09:07:00;18.40;;;12.30;;
75512;SDS011;64090;49.770;18.760;2024-03-02T09:10:03;15.90;;;10.20;;
75512;SDS011;64090;49.770;18.760;2024-03-02T09:13:06;16.60;;;11.10;;
75512;SDS011;64090;49.770;18.760;2024-03-02T09:16:09;16.70;;;10.50;;
75512;SDS011;64090;49.770;18.760;2024-03-02T09:19:14;18.70;;;11.20;;
75512;SDS011;64090;49.770;18.760;2024-03-02T09:22:17;17.20;;;10.50;;
75512;SDS011;64090;49.770;18.760;2024-03-02T09:25:19;13.40;;;9.50;;
75512;SDS011;64090;49.770;18.760;2024-03-02T09:28:22;17.20;;;9.90;;
75512;SDS011;64090;49.770;18.760;2024-03-02T09:31:25;18.20;;;11.40;;
75512;SDS011;64090;49.770;18.760;2024-03-02T09:34:28;15.80;;;10.20;;
75512;SDS011;64090;49.770;18.760;2024-03-02T09:37:31;14.70;;;9.30;;
75512;SDS011;64090;49.770;18.760;2024-03-02T09:40:34;17.00;;;10.70;;
75512;SDS011;64090;49.770;18.760;2024-03-02T09:43:39;12.70;;;9.60;;
75512;SDS011;64090;49.770;18.760;2024-03-02T09:46:43;15.80;;;10.40;;
75512;SDS011;64090;49.770;18.760;2024-03-02T09:49:47;14.70;;;10.50;;
75512;SDS011;64090;49.770;18.760;2024-03-02T09:52:50;14.20;;;10.40;;
75512;SDS011;64090;49.770;18.760;2024-03-02T09:55:55;15.80;;;10.90;;
75512;SDS011;64090;49.770;18.760;2024-03-02T09:58:58;11.70;;;7.70;;
75512;SDS011;64090;49.770;18.760;2024-03-02T10:02:02;12.10;;;8.10;;
75512;SDS011;64090;49.770;18.760;2024-03-02T10:05:05;13.30;;;9.70;;
75512;SDS011;64090;49.770;18.760;2024-03-02T10:08:09;13.00;;;8.80;;
75512;SDS011;64090;49.770;18.760;2024-03-02T10:11:19;15.00;;;10.70;;
75512;SDS011;64090;49.770;18.760;2024-03-02T10:14:30;10.60;;;8.60;;
75512;SDS011;64090;49.770;18.760;2024-03-02T10:17:33;17.80;;;11.60;;
75512;SDS011;64090;49.770;18.760;2024-03-02T10:20:36;13.30;;;9.60;;
75512;SDS011;64090;49.770;18.760;2024-03-02T10:23:39;13.20;;;9.50;;
75512;SDS011;64090;49.770;18.760;2024-03-02T10:26:42;10.30;;;6.80;;
75512;SDS011;64090;49.770;18.760;2024-03-02T10:29:45;9.80;;;7.60;;
75512;SDS011;64090;49.770;18.760;2024-03-02T10:32:49;7.90;;;5.10;;
75512;SDS011;64090;49.770;18.760;2024-03-02T10:35:52;8.50;;;5.30;;
75512;SDS011;64090;49.770;18.760;2024-03-02T10:38:58;8.20;;;5.30;;
75512;SDS011;64090;49.770;18.760;2024-03-02T10:42:02;8.20;;;4.70;;
75512;SDS011;64090;49.770;18.760;2024-03-02T10:45:06;6.60;;;4.30;;
75512;SDS011;64090;49.770;18.760;2024-03-02T10:51:14;7.00;;;4.10;;
75512;SDS011;64090;49.770;18.760;2024-03-02T10:54:18;7.20;;;4.20;;
75512;SDS011;64090;49.770;18.760;2024-03-02T10:57:21;7.40;;;5.00;;
75512;SDS011;64090;49.770;18.760;2024-03-02T11:00:26;6.20;;;5.20;;
75512;SDS011;64090;49.770;18.760;2024-03-02T11:03:35;7.40;;;4.90;;
75512;SDS011;64090;49.770;18.760;2024-03-02T11:06:40;8.90;;;5.20;;
75512;SDS011;64090;49.770;18.760;2024-03-02T11:09:54;6.30;;;4.30;;
75512;SDS011;64090;49.770;18.760;2024-03-02T11:13:03;7.00;;;4.90;;
75512;SDS011;64090;49.770;18.760;2024-03-02T11:20:08;7.60;;;4.80;;
75512;SDS011;64090;49.770;18.760;2024-03-02T11:23:52;7.70;;;4.70;;
75512;SDS011;64090;49.770;18.760;2024-03-02T11:28:05;8.80;;;5.00;;
75512;SDS011;64090;49.770;18.760;2024-03-02T11:36:00;6.90;;;4.20;;
75512;SDS011;64090;49.770;18.760;2024-03-02T11:39:26;6.50;;;4.70;;
75512;SDS011;64090;49.770;18.760;2024-03-02T11:43:04;5.80;;;4.50;;
75512;SDS011;64090;49.770;18.760;2024-03-02T11:47:00;7.30;;;4.60;;
75512;SDS011;64090;49.770;18.760;2024-03-02T11:51:05;9.00;;;6.60;;
75512;SDS011;64090;49.770;18.760;2024-03-02T11:54:30;9.20;;;6.20;;
75512;SDS011;64090;49.770;18.760;2024-03-02T11:57:58;7.30;;;5.00;;
75512;SDS011;64090;49.770;18.760;2024-03-02T12:01:30;8.70;;;4.90;;
75512;SDS011;64090;49.770;18.760;2024-03-02T12:04:49;9.00;;;5.40;;
75512;SDS011;64090;49.770;18.760;2024-03-02T12:08:02;7.40;;;5.20;;
75512;SDS011;64090;49.770;18.760;2024-03-02T12:11:07;8.00;;;5.60;;
75512;SDS011;64090;49.770;18.760;2024-03-02T12:14:11;8.60;;;5.80;;
75512;SDS011;64090;49.770;18.760;2024-03-02T12:17:15;9.20;;;6.30;;
75512;SDS011;64090;49.770;18.760;2024-03-02T12:20:19;8.00;;;5.10;;
75512;SDS011;64090;49.770;18.760;2024-03-02T12:23:23;9.50;;;6.30;;
75512;SDS011;64090;49.770;18.760;2024-03-02T12:26:26;11.10;;;8.50;;
75512;SDS011;64090;49.770;18.760;2024-03-02T12:29:29;9.50;;;7.40;;
75512;SDS011;64090;49.770;18.760;2024-03-02T12:32:32;8.60;;;6.60;;
75512;SDS011;64090;49.770;18.760;2024-03-02T12:35:35;10.10;;;6.40;;
75512;SDS011;64090;49.770;18.760;2024-03-02T12:38:43;9.80;;;6.40;;
75512;SDS011;64090;49.770;18.760;2024-03-02T12:41:47;11.90;;;8.30;;
75512;SDS011;64090;49.770;18.760;2024-03-02T12:44:53;11.10;;;8.90;;
75512;SDS011;64090;49.770;18.760;2024-03-02T12:47:57;11.40;;;8.60;;
75512;SDS011;64090;49.770;18.760;2024-03-02T12:51:03;12.30;;;8.60;;
75512;SDS011;64090;49.770;18.760;2024-03-02T12:54:06;10.30;;;7.80;;
75512;SDS011;64090;49.770;18.760;2024-03-02T12:57:11;10.90;;;7.50;;
75512;SDS011;64090;49.770;18.760;2024-03-02T13:00:20;9.80;;;6.60;;
75512;SDS011;64090;49.770;18.760;2024-03-02T13:03:25;10.70;;;8.50;;
75512;SDS011;64090;49.770;18.760;2024-03-02T13:06:28;10.50;;;8.00;;
75512;SDS011;64090;49.770;18.760;2024-03-02T13:09:31;12.10;;;7.80;;
75512;SDS011;64090;49.770;18.760;2024-03-02T13:12:36;12.00;;;9.10;;
75512;SDS011;64090;49.770;18.760;2024-03-02T13:15:40;10.10;;;7.70;;
75512;SDS011;64090;49.770;18.760;2024-03-02T13:18:44;11.00;;;7.70;;
75512;SDS011;64090;49.770;18.760;2024-03-02T13:21:47;10.70;;;8.20;;
75512;SDS011;64090;49.770;18.760;2024-03-02T13:24:50;15.60;;;10.60;;
75512;SDS011;64090;49.770;18.760;2024-03-02T13:27:54;11.80;;;8.50;;
75512;SDS011;64090;49.770;18.760;2024-03-02T13:30:57;14.50;;;10.70;;
75512;SDS011;64090;49.770;18.760;2024-03-02T13:34:00;14.70;;;11.00;;
75512;SDS011;64090;49.770;18.760;2024-03-02T13:37:03;15.30;;;11.50;;
75512;SDS011;64090;49.770;18.760;2024-03-02T13:40:08;15.90;;;12.70;;
75512;SDS011;64090;49.770;18.760;2024-03-02T13:43:15;18.30;;;12.70;;
75512;SDS011;64090;49.770;18.760;2024-03-02T13:46:18;17.30;;;11.70;;
75512;SDS011;64090;49.770;18.760;2024-03-02T13:49:21;15.70;;;11.40;;
75512;SDS011;64090;49.770;18.760;2024-03-02T13:52:25;14.70;;;10.30;;
75512;SDS011;64090;49.770;18.760;2024-03-02T13:55:29;13.00;;;9.60;;
75512;SDS011;64090;49.770;18.760;2024-03-02T13:58:31;18.50;;;14.30;;
75512;SDS011;64090;49.770;18.760;2024-03-02T14:01:34;23.30;;;18.50;;
75512;SDS011;64090;49.770;18.760;2024-03-02T14:04:38;13.60;;;11.70;;
75512;SDS011;64090;49.770;18.760;2024-03-02T14:07:41;27.30;;;18.50;;
75512;SDS011;64090;49.770;18.760;2024-03-02T14:10:45;16.40;;;11.80;;
75512;SDS011;64090;49.770;18.760;2024-03-02T14:13:48;16.60;;;12.40;;
75512;SDS011;64090;49.770;18.760;2024-03-02T14:16:57;36.20;;;28.90;;
75512;SDS011;64090;49.770;18.760;2024-03-02T14:20:03;21.40;;;17.90;;
75512;SDS011;64090;49.770;18.760;2024-03-02T14:23:07;22.90;;;16.30;;
75512;SDS011;64090;49.770;18.760;2024-03-02T14:26:11;23.30;;;16.30;;
75512;SDS011;64090;49.770;18.760;2024-03-02T14:29:14;19.80;;;13.00;;
75512;SDS011;64090;49.770;18.760;2024-03-02T14:32:16;16.90;;;13.10;;
75512;SDS011;64090;49.770;18.760;2024-03-02T14:35:19;29.50;;;21.10;;
75512;SDS011;64090;49.770;18.760;2024-03-02T14:38:25;30.10;;;21.20;;
75512;SDS011;64090;49.770;18.760;2024-03-02T14:41:28;28.50;;;21.30;;
75512;SDS011;64090;49.770;18.760;2024-03-02T14:44:31;32.20;;;24.60;;
75512;SDS011;64090;49.770;18.760;2024-03-02T14:47:34;35.90;;;26.60;;
75512;SDS011;64090;49.770;18.760;2024-03-02T14:50:38;38.10;;;26.00;;
75512;SDS011;64090;49.770;18.760;2024-03-02T14:53:41;39.90;;;28.90;;
75512;SDS011;64090;49.770;18.760;2024-03-02T14:56:44;43.00;;;30.30;;
75512;SDS011;64090;49.770;18.760;2024-03-02T14:59:47;44.70;;;30.40;;
75512;SDS011;64090;49.770;18.760;2024-03-02T15:02:50;48.20;;;32.80;;
75512;SDS011;64090;49.770;18.760;2024-03-02T15:05:53;51.30;;;33.80;;
75512;SDS011;64090;49.770;18.760;2024-03-02T15:08:56;55.00;;;33.20;;
75512;SDS011;64090;49.770;18.760;2024-03-02T15:11:59;52.50;;;33.60;;
75512;SDS011;64090;49.770;18.760;2024-03-02T15:15:02;54.50;;;35.10;;
75512;SDS011;64090;49.770;18.760;2024-03-02T15:18:06;51.30;;;31.50;;
75512;SDS011;64090;49.770;18.760;2024-03-02T15:21:10;49.40;;;34.30;;
75512;SDS011;64090;49.770;18.760;2024-03-02T15:24:13;48.10;;;31.50;;
75512;SDS011;64090;49.770;18.760;2024-03-02T15:27:16;51.10;;;36.10;;
75512;SDS011;64090;49.770;18.760;2024-03-02T15:30:19;46.30;;;33.60;;
75512;SDS011;64090;49.770;18.760;2024-03-02T15:33:22;44.70;;;28.70;;
75512;SDS011;64090;49.770;18.760;2024-03-02T15:36:28;40.20;;;27.10;;
75512;SDS011;64090;49.770;18.760;2024-03-02T15:39:32;34.30;;;22.50;;
75512;SDS011;64090;49.770;18.760;2024-03-02T15:42:35;38.40;;;23.80;;
75512;SDS011;64090;49.770;18.760;2024-03-02T15:45:38;39.30;;;24.90;;
75512;SDS011;64090;49.770;18.760;2024-03-02T15:48:41;42.70;;;28.80;;
75512;SDS011;64090;49.770;18.760;2024-03-02T15:51:44;48.90;;;31.40;;
75512;SDS011;64090;49.770;18.760;2024-03-02T15:54:47;32.40;;;22.40;;
75512;SDS011;64090;49.770;18.760;2024-03-02T15:57:54;35.80;;;22.00;;
75512;SDS011;64090;49.770;18.760;2024-03-02T16:00:57;37.30;;;24.70;;
75512;SDS011;64090;49.770;18.760;2024-03-02T16:04:00;41.30;;;27.70;;
75512;SDS011;64090;49.770;18.760;2024-03-02T16:07:03;37.70;;;24.00;;
75512;SDS011;64090;49.770;18.760;2024-03-02T16:10:07;44.10;;;28.70;;
75512;SDS011;64090;49.770;18.760;2024-03-02T16:13:11;43.50;;;28.60;;
75512;SDS011;64090;49.770;18.760;2024-03-02T16:16:14;41.40;;;29.00;;
75512;SDS011;64090;49.770;18.760;2024-03-02T16:19:17;46.40;;;27.80;;
75512;SDS011;64090;49.770;18.760;2024-03-02T16:22:34;45.70;;;30.10;;
75512;SDS011;64090;49.770;18.760;2024-03-02T16:25:37;53.80;;;32.00;;
75512;SDS011;64090;49.770;18.760;2024-03-02T16:28:39;49.30;;;31.30;;
75512;SDS011;64090;49.770;18.760;2024-03-02T16:31:42;52.70;;;35.00;;
75512;SDS011;64090;49.770;18.760;2024-03-02T16:34:45;51.80;;;35.50;;
75512;SDS011;64090;49.770;18.760;2024-03-02T16:37:48;49.20;;;31.10;;
75512;SDS011;64090;49.770;18.760;2024-03-02T16:40:51;38.30;;;23.50;;
75512;SDS011;64090;49.770;18.760;2024-03-02T16:43:57;37.60;;;24.10;;
75512;SDS011;64090;49.770;18.760;2024-03-02T16:47:00;42.00;;;28.10;;
75512;SDS011;64090;49.770;18.760;2024-03-02T16:50:04;48.60;;;31.70;;
75512;SDS011;64090;49.770;18.760;2024-03-02T16:53:10;40.90;;;24.80;;
75512;SDS011;64090;49.770;18.760;2024-03-02T16:56:13;42.70;;;27.80;;
75512;SDS011;64090;49.770;18.760;2024-03-02T16:59:16;44.80;;;29.30;;
75512;SDS011;64090;49.770;18.760;2024-03-02T17:02:59;42.00;;;25.70;;
75512;SDS011;64090;49.770;18.760;2024-03-02T17:06:30;42.40;;;27.60;;
75512;SDS011;64090;49.770;18.760;2024-03-02T17:09:57;46.50;;;29.20;;
75512;SDS011;64090;49.770;18.760;2024-03-02T17:13:24;51.80;;;32.90;;
75512;SDS011;64090;49.770;18.760;2024-03-02T17:16:54;48.50;;;29.30;;
75512;SDS011;64090;49.770;18.760;2024-03-02T17:20:19;49.00;;;29.00;;
75512;SDS011;64090;49.770;18.760;2024-03-02T17:23:42;48.40;;;31.40;;
75512;SDS011;64090;49.770;18.760;2024-03-02T17:27:20;44.70;;;27.30;;
75512;SDS011;64090;49.770;18.760;2024-03-02T17:30:59;52.70;;;30.90;;
75512;SDS011;64090;49.770;18.760;2024-03-02T17:34:06;58.40;;;36.00;;
75512;SDS011;64090;49.770;18.760;2024-03-02T17:37:09;59.30;;;38.20;;
75512;SDS011;64090;49.770;18.760;2024-03-02T17:40:12;62.20;;;39.30;;
75512;SDS011;64090;49.770;18.760;2024-03-02T17:43:15;67.40;;;39.30;;
75512;SDS011;64090;49.770;18.760;2024-03-02T17:46:18;77.50;;;44.90;;
75512;SDS011;64090;49.770;18.760;2024-03-02T17:49:21;73.20;;;42.80;;
75512;SDS011;64090;49.770;18.760;2024-03-02T17:52:24;69.80;;;42.50;;
75512;SDS011;64090;49.770;18.760;2024-03-02T17:55:27;84.10;;;49.70;;
75512;SDS011;64090;49.770;18.760;2024-03-02T17:58:31;83.20;;;45.70;;
75512;SDS011;64090;49.770;18.760;2024-03-02T18:01:35;95.80;;;53.90;;
75512;SDS011;64090;49.770;18.760;2024-03-02T18:04:38;246.00;;;107.10;;
75512;SDS011;64090;49.770;18.760;2024-03-02T18:10:47;100.10;;;54.80;;
75512;SDS011;64090;49.770;18.760;2024-03-02T18:13:53;95.00;;;52.30;;
75512;SDS011;64090;49.770;18.760;2024-03-02T18:16:55;94.90;;;49.30;;
75512;SDS011;64090;49.770;18.760;2024-03-02T18:19:59;107.80;;;56.70;;
75512;SDS011;64090;49.770;18.760;2024-03-02T18:23:02;96.50;;;53.90;;